sensor_id;sensor_type;location;lat;lon;timestamp;pressure;altitude;pressure_sealevel;temperature;humidity
9774;BME280;4926;42.670;23.316;2023-04-15T00:02:27;93763.13;;;8.99;76.43
9774;BME280;4926;42.670;23.316;2023-04-15T00:04:54;93794.94;;;9.26;75.95
9774;BME280;4926;42.670;23.316;2023-04-15T00:07:20;93813.31;;;9.36;77.02
9774;BME280;4926;42.670;23.316;2023-04-15T00:09:47;93803.47;;;9.37;78.71
9774;BME280;4926;42.670;23.316;2023-04-15T00:12:14;93794.91;;;9.40;80.01
9774;BME280;4926;42.670;23.316;2023-04-15T00:14:40;93803.06;;;9.57;80.00
9774;BME280;4926;42.670;23.316;2023-04-15T00:17:07;93801.69;;;9.59;79.93
9774;BME280;4926;42.670;23.316;2023-04-15T00:19:35;93799.88;;;9.68;80.01
9774;BME280;4926;42.670;23.316;2023-04-15T00:22:02;93796.59;;;9.49;80.93
9774;BME280;4926;42.670;23.316;2023-04-15T00:24:29;93799.53;;;9.34;81.65
9774;BME280;4926;42.670;23.316;2023-04-15T00:27:01;93801.53;;;9.15;85.04
9774;BME280;4926;42.670;23.316;2023-04-15T00:29:28;93794.25;;;9.07;85.03
9774;BME280;4926;42.670;23.316;2023-04-15T00:31:55;93797.41;;;9.23;84.25
9774;BME280;4926;42.670;23.316;2023-04-15T00:34:22;93799.16;;;9.27;84.00
9774;BME280;4926;42.670;23.316;2023-04-15T00:36:50;93795.44;;;9.15;85.28
9774;BME280;4926;42.670;23.316;2023-04-15T00:39:17;93811.56;;;9.32;85.18
9774;BME280;4926;42.670;23.316;2023-04-15T00:41:45;93813.41;;;9.31;87.35
9774;BME280;4926;42.670;23.316;2023-04-15T00:44:12;93811.53;;;9.45;87.15
9774;BME280;4926;42.670;23.316;2023-04-15T00:46:39;93805.81;;;9.65;85.86
9774;BME280;4926;42.670;23.316;2023-04-15T00:49:07;93803.78;;;9.84;84.74
9774;BME280;4926;42.670;23.316;2023-04-15T00:51:33;93797.13;;;9.73;83.77
9774;BME280;4926;42.670;23.316;2023-04-15T00:54:03;93790.81;;;9.69;83.50
9774;BME280;4926;42.670;23.316;2023-04-15T00:56:34;93796.75;;;9.66;83.07
9774;BME280;4926;42.670;23.316;2023-04-15T00:59:02;93804.47;;;9.41;86.24
9774;BME280;4926;42.670;23.316;2023-04-15T01:01:30;93806.44;;;9.08;86.21
9774;BME280;4926;42.670;23.316;2023-04-15T01:03:57;93802.09;;;8.58;87.82
9774;BME280;4926;42.670;23.316;2023-04-15T01:06:24;93820.00;;;8.34;90.34
9774;BME280;4926;42.670;23.316;2023-04-15T01:08:54;93823.34;;;8.21;93.00
9774;BME280;4926;42.670;23.316;2023-04-15T01:11:25;93821.47;;;8.40;93.28
9774;BME280;4926;42.670;23.316;2023-04-15T01:13:54;93815.25;;;8.63;92.18
9774;BME280;4926;42.670;23.316;2023-04-15T01:16:21;93831.38;;;8.80;90.35
9774;BME280;4926;42.670;23.316;2023-04-15T01:18:48;93822.72;;;8.61;90.17
9774;BME280;4926;42.670;23.316;2023-04-15T01:21:15;93812.50;;;8.54;92.99
9774;BME280;4926;42.670;23.316;2023-04-15T01:23:43;93804.94;;;8.61;93.63
9774;BME280;4926;42.670;23.316;2023-04-15T01:26:15;93806.63;;;8.71;92.81
9774;BME280;4926;42.670;23.316;2023-04-15T01:28:42;93805.03;;;8.56;94.18
9774;BME280;4926;42.670;23.316;2023-04-15T01:31:13;93803.25;;;8.52;95.05
9774;BME280;4926;42.670;23.316;2023-04-15T01:33:41;93809.94;;;8.63;95.35
9774;BME280;4926;42.670;23.316;2023-04-15T01:36:08;93807.78;;;8.65;95.90
9774;BME280;4926;42.670;23.316;2023-04-15T01:38:39;93813.22;;;8.73;96.05
9774;BME280;4926;42.670;23.316;2023-04-15T01:41:06;93804.19;;;8.88;95.92
9774;BME280;4926;42.670;23.316;2023-04-15T01:43:35;93809.41;;;8.93;95.76
9774;BME280;4926;42.670;23.316;2023-04-15T01:46:02;93820.41;;;9.14;94.43
9774;BME280;4926;42.670;23.316;2023-04-15T01:48:31;93821.69;;;9.30;93.40
9774;BME280;4926;42.670;23.316;2023-04-15T01:50:59;93824.34;;;9.16;93.89
9774;BME280;4926;42.670;23.316;2023-04-15T01:53:26;93828.47;;;9.09;94.59
9774;BME280;4926;42.670;23.316;2023-04-15T01:55:53;93838.88;;;8.78;97.22
9774;BME280;4926;42.670;23.316;2023-04-15T01:58:20;93832.28;;;8.75;98.58
9774;BME280;4926;42.670;23.316;2023-04-15T02:00:48;93830.00;;;8.69;100.00
9774;BME280;4926;42.670;23.316;2023-04-15T02:03:15;93837.06;;;8.60;100.00
9774;BME280;4926;42.670;23.316;2023-04-15T02:05:44;93836.84;;;8.56;100.00
9774;BME280;4926;42.670;23.316;2023-04-15T02:08:11;93839.00;;;8.54;100.00
9774;BME280;4926;42.670;23.316;2023-04-15T02:10:38;93831.00;;;8.73;100.00
9774;BME280;4926;42.670;23.316;2023-04-15T02:13:04;93822.66;;;8.66;100.00
9774;BME280;4926;42.670;23.316;2023-04-15T02:15:31;93814.75;;;8.61;100.00
9774;BME280;4926;42.670;23.316;2023-04-15T02:18:00;93820.94;;;8.56;100.00
9774;BME280;4926;42.670;23.316;2023-04-15T02:20:27;93813.69;;;8.62;100.00
9774;BME280;4926;42.670;23.316;2023-04-15T02:22:55;93798.72;;;8.52;100.00
9774;BME280;4926;42.670;23.316;2023-04-15T02:25:22;93792.56;;;8.57;100.00
9774;BME280;4926;42.670;23.316;2023-04-15T02:27:49;93795.63;;;8.77;100.00
9774;BME280;4926;42.670;23.316;2023-04-15T02:30:16;93791.88;;;8.78;100.00
9774;BME280;4926;42.670;23.316;2023-04-15T02:32:42;93810.09;;;8.85;100.00
9774;BME280;4926;42.670;23.316;2023-04-15T02:35:10;93792.38;;;8.94;100.00
9774;BME280;4926;42.670;23.316;2023-04-15T02:37:37;93799.19;;;9.00;100.00
9774;BME280;4926;42.670;23.316;2023-04-15T02:40:08;93798.78;;;8.93;100.00
9774;BME280;4926;42.670;23.316;2023-04-15T02:42:39;93795.13;;;8.89;100.00
9774;BME280;4926;42.670;23.316;2023-04-15T02:45:09;93795.44;;;9.01;100.00
9774;BME280;4926;42.670;23.316;2023-04-15T02:47:36;93803.88;;;9.03;100.00
9774;BME280;4926;42.670;23.316;2023-04-15T02:50:07;93792.38;;;8.94;100.00
9774;BME280;4926;42.670;23.316;2023-04-15T02:52:38;93795.03;;;8.94;100.00
9774;BME280;4926;42.670;23.316;2023-04-15T02:55:06;93806.25;;;8.91;100.00
9774;BME280;4926;42.670;23.316;2023-04-15T02:57:34;93810.50;;;8.92;100.00
9774;BME280;4926;42.670;23.316;2023-04-15T03:00:01;93808.59;;;8.79;100.00
9774;BME280;4926;42.670;23.316;2023-04-15T03:02:32;93805.66;;;8.80;100.00
9774;BME280;4926;42.670;23.316;2023-04-15T03:04:59;93804.06;;;8.66;100.00
9774;BME280;4926;42.670;23.316;2023-04-15T03:07:26;93808.63;;;8.47;100.00
9774;BME280;4926;42.670;23.316;2023-04-15T03:09:54;93813.00;;;8.56;100.00
9774;BME280;4926;42.670;23.316;2023-04-15T03:12:21;93817.50;;;8.56;100.00
9774;BME280;4926;42.670;23.316;2023-04-15T03:14:50;93816.13;;;8.58;100.00
9774;BME280;4926;42.670;23.316;2023-04-15T03:17:19;93821.75;;;8.70;100.00
9774;BME280;4926;42.670;23.316;2023-04-15T03:19:46;93816.94;;;8.72;100.00
9774;BME280;4926;42.670;23.316;2023-04-15T03:22:12;93825.31;;;8.66;100.00
9774;BME280;4926;42.670;23.316;2023-04-15T03:24:39;93820.56;;;8.63;100.00
9774;BME280;4926;42.670;23.316;2023-04-15T03:27:07;93825.09;;;8.62;100.00
9774;BME280;4926;42.670;23.316;2023-04-15T03:29:36;93828.38;;;8.73;100.00
9774;BME280;4926;42.670;23.316;2023-04-15T03:32:04;93833.06;;;8.62;99.57
9774;BME280;4926;42.670;23.316;2023-04-15T03:34:31;93840.41;;;8.65;99.44
9774;BME280;4926;42.670;23.316;2023-04-15T03:37:00;93850.41;;;8.55;99.28
9774;BME280;4926;42.670;23.316;2023-04-15T03:39:29;93851.00;;;8.52;100.00
9774;BME280;4926;42.670;23.316;2023-04-15T03:41:55;93846.88;;;8.59;99.09
9774;BME280;4926;42.670;23.316;2023-04-15T03:44:29;93855.31;;;8.48;99.27
9774;BME280;4926;42.670;23.316;2023-04-15T03:46:59;93868.69;;;8.56;98.71
9774;BME280;4926;42.670;23.316;2023-04-15T03:49:25;93867.69;;;8.52;97.87
9774;BME280;4926;42.670;23.316;2023-04-15T03:51:55;93870.81;;;8.41;97.16
9774;BME280;4926;42.670;23.316;2023-04-15T03:54:21;93878.47;;;8.42;97.17
9774;BME280;4926;42.670;23.316;2023-04-15T03:56:48;93878.84;;;8.36;96.24
9774;BME280;4926;42.670;23.316;2023-04-15T03:59:15;93877.47;;;8.20;97.68
9774;BME280;4926;42.670;23.316;2023-04-15T04:01:43;93863.28;;;8.11;97.13
9774;BME280;4926;42.670;23.316;2023-04-15T04:04:12;93866.34;;;8.18;97.24
9774;BME280;4926;42.670;23.316;2023-04-15T04:06:39;93874.75;;;8.25;95.68
9774;BME280;4926;42.670;23.316;2023-04-15T04:09:09;93880.63;;;8.22;93.71
9774;BME280;4926;42.670;23.316;2023-04-15T04:11:35;93876.38;;;8.21;93.91
9774;BME280;4926;42.670;23.316;2023-04-15T04:14:13;93884.28;;;8.26;94.15
9774;BME280;4926;42.670;23.316;2023-04-15T04:16:40;93865.09;;;8.15;95.53
9774;BME280;4926;42.670;23.316;2023-04-15T04:19:11;93878.56;;;8.19;97.45
9774;BME280;4926;42.670;23.316;2023-04-15T04:21:39;93875.19;;;8.13;99.10
9774;BME280;4926;42.670;23.316;2023-04-15T04:24:08;93879.19;;;8.11;100.00
9774;BME280;4926;42.670;23.316;2023-04-15T04:26:35;93878.25;;;7.83;100.00
9774;BME280;4926;42.670;23.316;2023-04-15T04:29:02;93884.34;;;7.83;100.00
9774;BME280;4926;42.670;23.316;2023-04-15T04:31:28;93876.53;;;7.73;100.00
9774;BME280;4926;42.670;23.316;2023-04-15T04:33:57;93877.97;;;7.66;100.00
9774;BME280;4926;42.670;23.316;2023-04-15T04:36:25;93878.41;;;7.91;100.00
9774;BME280;4926;42.670;23.316;2023-04-15T04:38:57;93873.38;;;8.09;100.00
9774;BME280;4926;42.670;23.316;2023-04-15T04:41:29;93883.06;;;8.18;100.00
9774;BME280;4926;42.670;23.316;2023-04-15T04:43:56;93881.06;;;8.29;100.00
9774;BME280;4926;42.670;23.316;2023-04-15T04:46:26;93889.94;;;8.38;100.00
9774;BME280;4926;42.670;23.316;2023-04-15T04:48:58;93877.88;;;8.45;100.00
9774;BME280;4926;42.670;23.316;2023-04-15T04:51:29;93890.84;;;8.47;100.00
9774;BME280;4926;42.670;23.316;2023-04-15T04:53:59;93897.06;;;8.24;100.00
9774;BME280;4926;42.670;23.316;2023-04-15T04:56:29;93897.81;;;8.24;100.00
9774;BME280;4926;42.670;23.316;2023-04-15T04:58:56;93907.72;;;8.37;100.00
9774;BME280;4926;42.670;23.316;2023-04-15T05:01:24;93913.94;;;8.46;100.00
9774;BME280;4926;42.670;23.316;2023-04-15T05:03:51;93914.28;;;8.58;99.11
9774;BME280;4926;42.670;23.316;2023-04-15T05:06:18;93925.69;;;8.59;97.50
9774;BME280;4926;42.670;23.316;2023-04-15T05:08:46;93926.59;;;8.68;97.52
9774;BME280;4926;42.670;23.316;2023-04-15T05:11:13;93929.00;;;8.83;95.26
9774;BME280;4926;42.670;23.316;2023-04-15T05:13:45;93932.28;;;8.93;94.20
9774;BME280;4926;42.670;23.316;2023-04-15T05:16:11;93943.81;;;9.02;93.13
9774;BME280;4926;42.670;23.316;2023-04-15T05:18:38;93946.88;;;9.10;92.36
9774;BME280;4926;42.670;23.316;2023-04-15T05:21:05;93941.38;;;9.20;88.67
9774;BME280;4926;42.670;23.316;2023-04-15T05:23:33;93937.84;;;9.24;87.10
9774;BME280;4926;42.670;23.316;2023-04-15T05:26:04;93947.09;;;9.40;85.79
9774;BME280;4926;42.670;23.316;2023-04-15T05:28:33;93941.41;;;9.33;84.38
9774;BME280;4926;42.670;23.316;2023-04-15T05:31:00;93937.75;;;9.29;83.93
9774;BME280;4926;42.670;23.316;2023-04-15T05:33:27;93929.59;;;9.39;84.23
9774;BME280;4926;42.670;23.316;2023-04-15T05:35:54;93928.41;;;9.45;83.27
9774;BME280;4926;42.670;23.316;2023-04-15T05:38:20;93919.56;;;9.50;82.75
9774;BME280;4926;42.670;23.316;2023-04-15T05:40:47;93927.03;;;9.61;80.98
9774;BME280;4926;42.670;23.316;2023-04-15T05:43:15;93923.69;;;9.69;79.87
9774;BME280;4926;42.670;23.316;2023-04-15T05:45:44;93928.59;;;9.62;80.81
9774;BME280;4926;42.670;23.316;2023-04-15T05:48:13;93943.97;;;9.65;81.29
9774;BME280;4926;42.670;23.316;2023-04-15T05:50:40;93933.84;;;9.67;80.41
9774;BME280;4926;42.670;23.316;2023-04-15T05:53:07;93918.19;;;9.52;80.59
9774;BME280;4926;42.670;23.316;2023-04-15T05:55:34;93941.41;;;9.33;81.68
9774;BME280;4926;42.670;23.316;2023-04-15T05:58:04;93939.84;;;9.59;81.34
9774;BME280;4926;42.670;23.316;2023-04-15T06:00:32;93954.69;;;9.87;80.59
9774;BME280;4926;42.670;23.316;2023-04-15T06:03:02;93949.97;;;10.11;79.50
9774;BME280;4926;42.670;23.316;2023-04-15T06:05:28;93950.63;;;10.31;78.30
9774;BME280;4926;42.670;23.316;2023-04-15T06:07:55;93947.75;;;10.41;76.90
9774;BME280;4926;42.670;23.316;2023-04-15T06:10:22;93950.78;;;10.48;76.55
9774;BME280;4926;42.670;23.316;2023-04-15T06:12:48;93955.63;;;10.46;76.12
9774;BME280;4926;42.670;23.316;2023-04-15T06:15:18;93956.84;;;10.62;76.69
9774;BME280;4926;42.670;23.316;2023-04-15T06:17:47;93954.09;;;10.18;77.50
9774;BME280;4926;42.670;23.316;2023-04-15T06:20:16;93960.28;;;10.27;78.67
9774;BME280;4926;42.670;23.316;2023-04-15T06:22:48;93974.00;;;10.56;78.33
9774;BME280;4926;42.670;23.316;2023-04-15T06:25:15;93959.91;;;10.55;77.60
9774;BME280;4926;42.670;23.316;2023-04-15T06:27:42;93956.97;;;10.79;77.85
9774;BME280;4926;42.670;23.316;2023-04-15T06:30:09;93970.44;;;10.60;76.03
9774;BME280;4926;42.670;23.316;2023-04-15T06:32:36;93978.47;;;10.47;76.56
9774;BME280;4926;42.670;23.316;2023-04-15T06:35:05;93975.72;;;10.74;77.32
9774;BME280;4926;42.670;23.316;2023-04-15T06:37:31;93986.88;;;10.98;76.50
9774;BME280;4926;42.670;23.316;2023-04-15T06:39:58;93976.69;;;11.22;75.77
9774;BME280;4926;42.670;23.316;2023-04-15T06:42:25;93976.19;;;11.42;74.19
9774;BME280;4926;42.670;23.316;2023-04-15T06:44:52;93971.84;;;11.77;72.95
9774;BME280;4926;42.670;23.316;2023-04-15T06:47:20;93968.56;;;11.49;71.02
9774;BME280;4926;42.670;23.316;2023-04-15T06:49:47;93985.53;;;11.62;71.50
9774;BME280;4926;42.670;23.316;2023-04-15T06:52:15;93983.88;;;11.74;71.52
9774;BME280;4926;42.670;23.316;2023-04-15T06:54:42;93980.09;;;12.06;70.73
9774;BME280;4926;42.670;23.316;2023-04-15T06:57:09;93983.78;;;12.53;69.41
9774;BME280;4926;42.670;23.316;2023-04-15T06:59:37;93969.06;;;13.15;65.57
9774;BME280;4926;42.670;23.316;2023-04-15T07:02:04;93950.69;;;13.68;62.44
9774;BME280;4926;42.670;23.316;2023-04-15T07:04:31;93951.22;;;13.99;60.14
9774;BME280;4926;42.670;23.316;2023-04-15T07:06:59;93948.97;;;14.01;59.51
9774;BME280;4926;42.670;23.316;2023-04-15T07:09:28;93950.97;;;14.13;59.30
9774;BME280;4926;42.670;23.316;2023-04-15T07:11:58;93945.72;;;14.54;57.95
9774;BME280;4926;42.670;23.316;2023-04-15T07:14:24;93939.19;;;14.84;56.72
9774;BME280;4926;42.670;23.316;2023-04-15T07:16:52;93933.53;;;15.18;55.07
9774;BME280;4926;42.670;23.316;2023-04-15T07:19:21;93923.47;;;15.48;54.33
9774;BME280;4926;42.670;23.316;2023-04-15T07:21:48;93918.13;;;15.48;53.34
9774;BME280;4926;42.670;23.316;2023-04-15T07:24:17;93926.97;;;15.28;52.99
9774;BME280;4926;42.670;23.316;2023-04-15T07:26:46;93938.78;;;14.94;53.66
9774;BME280;4926;42.670;23.316;2023-04-15T07:29:13;93929.16;;;15.46;52.58
9774;BME280;4926;42.670;23.316;2023-04-15T07:31:39;93934.38;;;15.88;52.57
9774;BME280;4926;42.670;23.316;2023-04-15T07:34:07;93929.00;;;16.36;51.47
9774;BME280;4926;42.670;23.316;2023-04-15T07:36:36;93924.16;;;16.65;50.97
9774;BME280;4926;42.670;23.316;2023-04-15T07:39:05;93906.59;;;16.68;49.69
9774;BME280;4926;42.670;23.316;2023-04-15T07:41:32;93901.47;;;16.39;49.84
9774;BME280;4926;42.670;23.316;2023-04-15T07:44:03;93917.78;;;16.70;50.44
9774;BME280;4926;42.670;23.316;2023-04-15T07:46:33;93913.97;;;16.71;49.70
9774;BME280;4926;42.670;23.316;2023-04-15T07:48:59;93919.91;;;16.64;49.72
9774;BME280;4926;42.670;23.316;2023-04-15T07:51:26;93932.00;;;16.58;49.89
9774;BME280;4926;42.670;23.316;2023-04-15T07:53:54;93918.84;;;16.93;49.04
9774;BME280;4926;42.670;23.316;2023-04-15T07:56:23;93936.47;;;17.06;48.70
9774;BME280;4926;42.670;23.316;2023-04-15T07:58:50;93930.81;;;16.96;48.98
9774;BME280;4926;42.670;23.316;2023-04-15T08:01:18;93925.47;;;17.51;48.14
9774;BME280;4926;42.670;23.316;2023-04-15T08:03:45;93924.78;;;17.85;47.36
9774;BME280;4926;42.670;23.316;2023-04-15T08:06:15;93922.50;;;18.18;47.35
9774;BME280;4926;42.670;23.316;2023-04-15T08:08:44;93910.88;;;18.45;45.53
9774;BME280;4926;42.670;23.316;2023-04-15T08:11:12;93900.44;;;18.44;44.46
9774;BME280;4926;42.670;23.316;2023-04-15T08:13:39;93896.22;;;19.00;44.00
9774;BME280;4926;42.670;23.316;2023-04-15T08:16:20;93875.69;;;19.75;41.78
9774;BME280;4926;42.670;23.316;2023-04-15T08:18:48;93862.41;;;20.12;40.11
9774;BME280;4926;42.670;23.316;2023-04-15T08:21:16;93867.47;;;19.91;40.65
9774;BME280;4926;42.670;23.316;2023-04-15T08:23:44;93862.53;;;20.19;39.39
9774;BME280;4926;42.670;23.316;2023-04-15T08:26:11;93867.00;;;20.08;39.25
9774;BME280;4926;42.670;23.316;2023-04-15T08:28:39;93866.19;;;20.30;39.08
9774;BME280;4926;42.670;23.316;2023-04-15T08:31:07;93856.59;;;20.33;38.45
9774;BME280;4926;42.670;23.316;2023-04-15T08:33:37;93852.13;;;20.47;37.68
9774;BME280;4926;42.670;23.316;2023-04-15T08:36:04;93851.50;;;20.31;37.61
9774;BME280;4926;42.670;23.316;2023-04-15T08:38:32;93851.06;;;20.26;37.40
9774;BME280;4926;42.670;23.316;2023-04-15T08:40:59;93858.47;;;20.06;38.27
9774;BME280;4926;42.670;23.316;2023-04-15T08:43:32;93846.75;;;19.98;37.88
9774;BME280;4926;42.670;23.316;2023-04-15T08:46:03;93857.13;;;19.96;38.18
9774;BME280;4926;42.670;23.316;2023-04-15T08:48:32;93852.13;;;20.47;38.20
9774;BME280;4926;42.670;23.316;2023-04-15T08:51:00;93846.81;;;20.54;37.10
9774;BME280;4926;42.670;23.316;2023-04-15T08:53:30;93859.03;;;20.41;37.78
9774;BME280;4926;42.670;23.316;2023-04-15T08:55:59;93847.75;;;20.95;36.60
9774;BME280;4926;42.670;23.316;2023-04-15T08:58:30;93836.19;;;20.98;35.86
9774;BME280;4926;42.670;23.316;2023-04-15T09:00:57;93834.28;;;20.98;36.58
9774;BME280;4926;42.670;23.316;2023-04-15T09:03:24;93827.25;;;20.64;36.22
9774;BME280;4926;42.670;23.316;2023-04-15T09:05:52;93831.13;;;20.63;36.54
9774;BME280;4926;42.670;23.316;2023-04-15T09:08:20;93819.06;;;20.57;34.27
9774;BME280;4926;42.670;23.316;2023-04-15T09:10:47;93818.16;;;20.46;34.04
9774;BME280;4926;42.670;23.316;2023-04-15T09:13:17;93796.50;;;20.76;34.05
9774;BME280;4926;42.670;23.316;2023-04-15T09:15:47;93827.03;;;19.72;38.08
9774;BME280;4926;42.670;23.316;2023-04-15T09:18:26;93844.00;;;18.89;39.66
9774;BME280;4926;42.670;23.316;2023-04-15T09:20:53;93840.09;;;17.98;40.94
9774;BME280;4926;42.670;23.316;2023-04-15T09:23:21;93848.88;;;18.45;41.13
9774;BME280;4926;42.670;23.316;2023-04-15T09:25:48;93838.84;;;18.80;40.65
9774;BME280;4926;42.670;23.316;2023-04-15T09:28:23;93842.34;;;19.04;39.20
9774;BME280;4926;42.670;23.316;2023-04-15T09:30:52;93851.44;;;18.07;40.36
9774;BME280;4926;42.670;23.316;2023-04-15T09:33:20;93855.03;;;18.46;40.48
9774;BME280;4926;42.670;23.316;2023-04-15T09:35:56;93831.97;;;19.06;37.27
9774;BME280;4926;42.670;23.316;2023-04-15T09:38:24;93829.25;;;19.44;37.71
9774;BME280;4926;42.670;23.316;2023-04-15T09:40:51;93810.34;;;19.89;35.61
9774;BME280;4926;42.670;23.316;2023-04-15T09:43:18;93821.88;;;19.63;37.56
9774;BME280;4926;42.670;23.316;2023-04-15T09:45:49;93823.84;;;19.89;38.00
9774;BME280;4926;42.670;23.316;2023-04-15T09:48:18;93824.81;;;20.26;37.89
9774;BME280;4926;42.670;23.316;2023-04-15T09:50:48;93817.16;;;20.32;36.50
9774;BME280;4926;42.670;23.316;2023-04-15T09:53:18;93828.88;;;20.39;36.59
9774;BME280;4926;42.670;23.316;2023-04-15T09:55:49;93828.41;;;20.11;36.80
9774;BME280;4926;42.670;23.316;2023-04-15T09:58:21;93836.84;;;19.19;37.93
9774;BME280;4926;42.670;23.316;2023-04-15T10:00:49;93835.38;;;19.22;38.61
9774;BME280;4926;42.670;23.316;2023-04-15T10:03:18;93847.81;;;19.45;38.56
9774;BME280;4926;42.670;23.316;2023-04-15T10:05:50;93811.91;;;19.03;33.21
9774;BME280;4926;42.670;23.316;2023-04-15T10:08:18;93806.44;;;18.61;33.05
9774;BME280;4926;42.670;23.316;2023-04-15T10:10:50;93790.72;;;18.63;32.41
9774;BME280;4926;42.670;23.316;2023-04-15T10:13:18;93793.25;;;18.95;33.45
9774;BME280;4926;42.670;23.316;2023-04-15T10:15:50;93777.50;;;18.77;32.40
9774;BME280;4926;42.670;23.316;2023-04-15T10:18:19;93770.56;;;18.57;33.35
9774;BME280;4926;42.670;23.316;2023-04-15T10:20:47;93783.22;;;19.37;33.27
9774;BME280;4926;42.670;23.316;2023-04-15T10:23:16;93772.53;;;19.89;31.59
9774;BME280;4926;42.670;23.316;2023-04-15T10:25:45;93767.53;;;20.17;31.49
9774;BME280;4926;42.670;23.316;2023-04-15T10:28:14;93760.28;;;20.54;31.49
9774;BME280;4926;42.670;23.316;2023-04-15T10:30:41;93750.56;;;20.79;31.71
9774;BME280;4926;42.670;23.316;2023-04-15T10:33:09;93739.88;;;20.93;30.55
9774;BME280;4926;42.670;23.316;2023-04-15T10:35:36;93748.63;;;20.47;30.61
9774;BME280;4926;42.670;23.316;2023-04-15T10:38:31;93748.97;;;20.45;30.74
9774;BME280;4926;42.670;23.316;2023-04-15T10:41:12;93747.47;;;19.92;31.03
9774;BME280;4926;42.670;23.316;2023-04-15T10:43:50;93746.31;;;19.93;30.94
9774;BME280;4926;42.670;23.316;2023-04-15T10:46:18;93742.91;;;19.02;31.71
9774;BME280;4926;42.670;23.316;2023-04-15T10:48:47;93753.38;;;19.49;32.38
9774;BME280;4926;42.670;23.316;2023-04-15T10:51:14;93742.06;;;19.66;31.59
9774;BME280;4926;42.670;23.316;2023-04-15T10:53:41;93746.22;;;19.86;32.18
9774;BME280;4926;42.670;23.316;2023-04-15T10:56:09;93718.53;;;19.66;31.33
9774;BME280;4926;42.670;23.316;2023-04-15T10:58:40;93740.44;;;19.61;31.97
9774;BME280;4926;42.670;23.316;2023-04-15T11:01:19;93739.00;;;19.67;31.09
9774;BME280;4926;42.670;23.316;2023-04-15T11:03:50;93735.47;;;18.96;31.90
9774;BME280;4926;42.670;23.316;2023-04-15T11:06:17;93725.16;;;19.01;31.40
9774;BME280;4926;42.670;23.316;2023-04-15T11:08:56;93721.69;;;19.46;30.88
9774;BME280;4926;42.670;23.316;2023-04-15T11:14:41;93728.81;;;20.10;30.49
9774;BME280;4926;42.670;23.316;2023-04-15T11:17:12;93719.28;;;18.96;29.98
9774;BME280;4926;42.670;23.316;2023-04-15T11:19:39;93730.72;;;18.66;30.90
9774;BME280;4926;42.670;23.316;2023-04-15T11:22:10;93717.38;;;19.19;31.46
9774;BME280;4926;42.670;23.316;2023-04-15T11:24:46;93728.72;;;20.02;30.43
9774;BME280;4926;42.670;23.316;2023-04-15T11:27:22;93711.00;;;19.79;30.43
9774;BME280;4926;42.670;23.316;2023-04-15T11:29:49;93728.72;;;19.50;31.36
9774;BME280;4926;42.670;23.316;2023-04-15T11:32:18;93723.97;;;19.44;31.05
9774;BME280;4926;42.670;23.316;2023-04-15T11:34:44;93726.56;;;20.15;30.80
9774;BME280;4926;42.670;23.316;2023-04-15T11:37:12;93730.41;;;20.14;30.48
9774;BME280;4926;42.670;23.316;2023-04-15T11:39:39;93723.03;;;19.33;30.96
9774;BME280;4926;42.670;23.316;2023-04-15T11:42:15;93724.81;;;20.00;31.60
9774;BME280;4926;42.670;23.316;2023-04-15T11:44:42;93726.16;;;20.13;30.71
9774;BME280;4926;42.670;23.316;2023-04-15T11:47:22;93723.94;;;20.48;30.81
9774;BME280;4926;42.670;23.316;2023-04-15T11:49:49;93726.00;;;20.62;31.20
9774;BME280;4926;42.670;23.316;2023-04-15T11:52:15;93706.88;;;20.44;29.72
9774;BME280;4926;42.670;23.316;2023-04-15T11:54:42;93713.47;;;20.17;29.20
9774;BME280;4926;42.670;23.316;2023-04-15T11:57:09;93695.38;;;20.21;28.87
9774;BME280;4926;42.670;23.316;2023-04-15T11:59:41;93706.97;;;20.51;29.22
9774;BME280;4926;42.670;23.316;2023-04-15T12:02:13;93699.44;;;20.34;29.37
9774;BME280;4926;42.670;23.316;2023-04-15T12:05:03;93704.41;;;20.02;28.97
9774;BME280;4926;42.670;23.316;2023-04-15T12:08:04;93695.38;;;20.21;28.66
9774;BME280;4926;42.670;23.316;2023-04-15T12:10:34;93709.88;;;20.36;29.31
9774;BME280;4926;42.670;23.316;2023-04-15T12:13:05;93698.25;;;20.35;28.88
9774;BME280;4926;42.670;23.316;2023-04-15T12:16:04;93698.53;;;19.97;29.50
9774;BME280;4926;42.670;23.316;2023-04-15T12:18:31;93697.03;;;20.62;30.35
9774;BME280;4926;42.670;23.316;2023-04-15T12:21:08;93696.59;;;20.93;30.00
9774;BME280;4926;42.670;23.316;2023-04-15T12:23:36;93692.88;;;21.08;30.16
9774;BME280;4926;42.670;23.316;2023-04-15T12:26:04;93701.94;;;21.27;30.71
9774;BME280;4926;42.670;23.316;2023-04-15T12:28:33;93698.53;;;20.96;30.90
9774;BME280;4926;42.670;23.316;2023-04-15T12:31:06;93703.56;;;20.98;29.96
9774;BME280;4926;42.670;23.316;2023-04-15T12:33:33;93695.78;;;20.89;30.35
9774;BME280;4926;42.670;23.316;2023-04-15T12:36:03;93708.19;;;20.57;31.12
9774;BME280;4926;42.670;23.316;2023-04-15T12:38:31;93717.59;;;20.37;30.23
9774;BME280;4926;42.670;23.316;2023-04-15T12:40:58;93715.13;;;20.25;29.39
9774;BME280;4926;42.670;23.316;2023-04-15T12:43:27;93729.69;;;19.91;30.39
9774;BME280;4926;42.670;23.316;2023-04-15T12:45:54;93730.06;;;19.89;31.16
9774;BME280;4926;42.670;23.316;2023-04-15T12:48:21;93722.84;;;19.97;30.98
9774;BME280;4926;42.670;23.316;2023-04-15T12:50:47;93726.56;;;20.15;31.18
9774;BME280;4926;42.670;23.316;2023-04-15T12:53:14;93726.59;;;19.89;31.49
9774;BME280;4926;42.670;23.316;2023-04-15T12:55:42;93736.53;;;20.11;31.70
9774;BME280;4926;42.670;23.316;2023-04-15T12:58:09;93727.22;;;20.35;30.96
9774;BME280;4926;42.670;23.316;2023-04-15T13:00:36;93733.44;;;20.72;31.41
9774;BME280;4926;42.670;23.316;2023-04-15T13:03:04;93708.34;;;21.04;30.23
9774;BME280;4926;42.670;23.316;2023-04-15T13:05:31;93725.34;;;19.83;30.15
9774;BME280;4926;42.670;23.316;2023-04-15T13:07:58;93718.25;;;19.26;30.94
9774;BME280;4926;42.670;23.316;2023-04-15T13:10:25;93717.25;;;19.12;30.58
9774;BME280;4926;42.670;23.316;2023-04-15T13:12:54;93722.31;;;19.36;30.49
9774;BME280;4926;42.670;23.316;2023-04-15T13:15:21;93723.94;;;19.92;30.37
9774;BME280;4926;42.670;23.316;2023-04-15T13:17:49;93720.59;;;20.02;30.53
9774;BME280;4926;42.670;23.316;2023-04-15T13:20:16;93720.97;;;20.01;30.50
9774;BME280;4926;42.670;23.316;2023-04-15T13:22:43;93725.22;;;20.02;30.72
9774;BME280;4926;42.670;23.316;2023-04-15T13:25:10;93709.66;;;20.88;30.45
9774;BME280;4926;42.670;23.316;2023-04-15T13:27:37;93697.59;;;21.66;29.80